sensor_id;sensor_type;location;lat;lon;timestamp;temperature;humidity
20560;DHT22;10438;51.454;6.718;2023-06-10T00:01:00;22.20;19.30
20560;DHT22;10438;51.454;6.718;2023-06-10T00:03:26;22.10;20.30
20560;DHT22;10438;51.454;6.718;2023-06-10T00:05:52;22.10;23.00
20560;DHT22;10438;51.454;6.718;2023-06-10T00:08:17;22.10;23.40
20560;DHT22;10438;51.454;6.718;2023-06-10T00:10:45;22.00;24.60
20560;DHT22;10438;51.454;6.718;2023-06-10T00:13:10;22.00;25.90
20560;DHT22;10438;51.454;6.718;2023-06-10T00:15:36;21.90;26.10
20560;DHT22;10438;51.454;6.718;2023-06-10T00:18:02;21.90;26.10
20560;DHT22;10438;51.454;6.718;2023-06-10T00:20:29;21.90;27.10
20560;DHT22;10438;51.454;6.718;2023-06-10T00:22:56;21.90;26.70
20560;DHT22;10438;51.454;6.718;2023-06-10T00:25:22;21.80;27.70
20560;DHT22;10438;51.454;6.718;2023-06-10T00:27:48;21.80;28.70
20560;DHT22;10438;51.454;6.718;2023-06-10T00:30:13;21.80;30.90
20560;DHT22;10438;51.454;6.718;2023-06-10T00:32:39;21.80;32.90
20560;DHT22;10438;51.454;6.718;2023-06-10T00:35:05;21.70;33.10
20560;DHT22;10438;51.454;6.718;2023-06-10T00:37:35;21.70;33.00
20560;DHT22;10438;51.454;6.718;2023-06-10T00:40:02;21.70;33.90
20560;DHT22;10438;51.454;6.718;2023-06-10T00:42:28;21.60;36.00
20560;DHT22;10438;51.454;6.718;2023-06-10T00:44:56;21.60;36.50
20560;DHT22;10438;51.454;6.718;2023-06-10T00:47:22;21.60;36.80
20560;DHT22;10438;51.454;6.718;2023-06-10T00:49:49;21.50;37.40
20560;DHT22;10438;51.454;6.718;2023-06-10T00:52:16;21.50;37.00
20560;DHT22;10438;51.454;6.718;2023-06-10T00:54:44;21.50;40.20
20560;DHT22;10438;51.454;6.718;2023-06-10T00:57:10;21.50;42.00
20560;DHT22;10438;51.454;6.718;2023-06-10T00:59:35;21.40;42.10
20560;DHT22;10438;51.454;6.718;2023-06-10T01:02:01;21.50;43.10
20560;DHT22;10438;51.454;6.718;2023-06-10T01:04:27;21.40;42.70
20560;DHT22;10438;51.454;6.718;2023-06-10T01:09:49;21.40;44.00
20560;DHT22;10438;51.454;6.718;2023-06-10T01:15:02;21.20;53.70
20560;DHT22;10438;51.454;6.718;2023-06-10T01:17:29;21.20;53.70
20560;DHT22;10438;51.454;6.718;2023-06-10T01:19:56;21.10;57.00
20560;DHT22;10438;51.454;6.718;2023-06-10T01:22:23;21.10;55.90
20560;DHT22;10438;51.454;6.718;2023-06-10T01:24:49;21.00;56.70
20560;DHT22;10438;51.454;6.718;2023-06-10T01:27:17;21.00;55.70
20560;DHT22;10438;51.454;6.718;2023-06-10T01:29:46;21.00;54.60
20560;DHT22;10438;51.454;6.718;2023-06-10T01:32:34;21.00;57.10
20560;DHT22;10438;51.454;6.718;2023-06-10T01:35:03;21.00;56.30
20560;DHT22;10438;51.454;6.718;2023-06-10T01:37:31;21.00;55.50
20560;DHT22;10438;51.454;6.718;2023-06-10T01:39:59;20.90;56.60
20560;DHT22;10438;51.454;6.718;2023-06-10T01:42:25;20.90;57.60
20560;DHT22;10438;51.454;6.718;2023-06-10T01:44:51;20.90;58.00
20560;DHT22;10438;51.454;6.718;2023-06-10T01:47:17;20.80;59.60
20560;DHT22;10438;51.454;6.718;2023-06-10T01:49:43;20.80;62.20
20560;DHT22;10438;51.454;6.718;2023-06-10T01:52:09;20.80;61.00
20560;DHT22;10438;51.454;6.718;2023-06-10T01:54:34;20.80;60.50
20560;DHT22;10438;51.454;6.718;2023-06-10T01:57:01;20.80;63.90
20560;DHT22;10438;51.454;6.718;2023-06-10T01:59:27;20.70;66.20
20560;DHT22;10438;51.454;6.718;2023-06-10T02:01:52;20.70;65.80
20560;DHT22;10438;51.454;6.718;2023-06-10T02:04:18;20.70;66.40
20560;DHT22;10438;51.454;6.718;2023-06-10T02:06:43;20.70;68.00
20560;DHT22;10438;51.454;6.718;2023-06-10T02:09:09;20.60;70.20
20560;DHT22;10438;51.454;6.718;2023-06-10T02:11:35;20.70;71.20
20560;DHT22;10438;51.454;6.718;2023-06-10T02:14:00;20.60;74.70
20560;DHT22;10438;51.454;6.718;2023-06-10T02:16:26;20.60;76.20
20560;DHT22;10438;51.454;6.718;2023-06-10T02:18:51;20.50;78.30
20560;DHT22;10438;51.454;6.718;2023-06-10T02:21:17;20.50;79.80
20560;DHT22;10438;51.454;6.718;2023-06-10T02:23:42;20.40;81.80
20560;DHT22;10438;51.454;6.718;2023-06-10T02:26:08;20.40;84.80
20560;DHT22;10438;51.454;6.718;2023-06-10T02:28:33;20.40;86.30
20560;DHT22;10438;51.454;6.718;2023-06-10T02:30:59;20.30;87.70
20560;DHT22;10438;51.454;6.718;2023-06-10T02:33:25;20.30;89.90
20560;DHT22;10438;51.454;6.718;2023-06-10T02:35:52;20.20;91.20
20560;DHT22;10438;51.454;6.718;2023-06-10T02:38:17;20.20;91.20
20560;DHT22;10438;51.454;6.718;2023-06-10T02:40:43;20.20;92.20
20560;DHT22;10438;51.454;6.718;2023-06-10T02:43:09;20.10;92.50
20560;DHT22;10438;51.454;6.718;2023-06-10T02:45:34;20.10;93.20
20560;DHT22;10438;51.454;6.718;2023-06-10T02:48:00;20.10;93.90
20560;DHT22;10438;51.454;6.718;2023-06-10T02:50:25;20.00;95.00
20560;DHT22;10438;51.454;6.718;2023-06-10T02:52:51;19.90;96.80
20560;DHT22;10438;51.454;6.718;2023-06-10T02:55:16;19.90;97.20
20560;DHT22;10438;51.454;6.718;2023-06-10T02:57:42;19.90;97.80
20560;DHT22;10438;51.454;6.718;2023-06-10T03:00:08;19.80;98.40
20560;DHT22;10438;51.454;6.718;2023-06-10T03:02:39;19.80;99.10
20560;DHT22;10438;51.454;6.718;2023-06-10T03:05:06;19.80;99.50
20560;DHT22;10438;51.454;6.718;2023-06-10T03:07:35;19.80;99.40
20560;DHT22;10438;51.454;6.718;2023-06-10T03:10:01;19.80;99.90
20560;DHT22;10438;51.454;6.718;2023-06-10T03:12:27;19.70;99.90
20560;DHT22;10438;51.454;6.718;2023-06-10T03:14:52;19.70;99.90
20560;DHT22;10438;51.454;6.718;2023-06-10T03:17:18;19.70;99.90
20560;DHT22;10438;51.454;6.718;2023-06-10T03:19:43;19.60;99.90
20560;DHT22;10438;51.454;6.718;2023-06-10T03:22:13;19.60;99.90
20560;DHT22;10438;51.454;6.718;2023-06-10T03:24:39;19.60;99.90
20560;DHT22;10438;51.454;6.718;2023-06-10T03:27:12;19.60;99.90
20560;DHT22;10438;51.454;6.718;2023-06-10T03:29:38;19.50;99.90
20560;DHT22;10438;51.454;6.718;2023-06-10T03:32:05;19.50;99.90
20560;DHT22;10438;51.454;6.718;2023-06-10T03:34:31;19.50;99.90
20560;DHT22;10438;51.454;6.718;2023-06-10T03:36:57;19.50;99.90
20560;DHT22;10438;51.454;6.718;2023-06-10T03:39:22;19.50;99.90
20560;DHT22;10438;51.454;6.718;2023-06-10T03:41:51;19.40;99.90
20560;DHT22;10438;51.454;6.718;2023-06-10T03:44:16;19.40;99.90
20560;DHT22;10438;51.454;6.718;2023-06-10T03:46:42;19.40;99.90
20560;DHT22;10438;51.454;6.718;2023-06-10T03:49:07;19.40;99.90
20560;DHT22;10438;51.454;6.718;2023-06-10T03:51:35;19.40;99.90
20560;DHT22;10438;51.454;6.718;2023-06-10T03:54:01;19.30;99.90
20560;DHT22;10438;51.454;6.718;2023-06-10T03:56:26;19.30;99.90
20560;DHT22;10438;51.454;6.718;2023-06-10T03:58:52;19.30;99.90
20560;DHT22;10438;51.454;6.718;2023-06-10T04:01:17;19.30;99.90
20560;DHT22;10438;51.454;6.718;2023-06-10T04:03:49;19.40;99.90
20560;DHT22;10438;51.454;6.718;2023-06-10T04:06:16;19.30;99.90
20560;DHT22;10438;51.454;6.718;2023-06-10T04:08:42;19.30;99.90
20560;DHT22;10438;51.454;6.718;2023-06-10T04:11:08;19.40;99.90
20560;DHT22;10438;51.454;6.718;2023-06-10T04:13:34;19.40;99.90
20560;DHT22;10438;51.454;6.718;2023-06-10T04:15:59;19.40;99.90
20560;DHT22;10438;51.454;6.718;2023-06-10T04:18:25;19.40;99.90
20560;DHT22;10438;51.454;6.718;2023-06-10T04:20:50;19.40;99.90
20560;DHT22;10438;51.454;6.718;2023-06-10T04:23:16;19.30;99.90
20560;DHT22;10438;51.454;6.718;2023-06-10T04:25:42;19.30;99.90
20560;DHT22;10438;51.454;6.718;2023-06-10T04:28:08;19.30;99.90
20560;DHT22;10438;51.454;6.718;2023-06-10T04:30:33;19.30;99.90
20560;DHT22;10438;51.454;6.718;2023-06-10T04:32:59;19.30;99.90
20560;DHT22;10438;51.454;6.718;2023-06-10T04:35:25;19.20;99.90
20560;DHT22;10438;51.454;6.718;2023-06-10T04:37:53;19.20;99.90
20560;DHT22;10438;51.454;6.718;2023-06-10T04:40:19;19.20;99.90
20560;DHT22;10438;51.454;6.718;2023-06-10T04:42:44;19.20;99.90
20560;DHT22;10438;51.454;6.718;2023-06-10T04:45:10;19.20;99.90
20560;DHT22;10438;51.454;6.718;2023-06-10T04:47:36;19.20;99.90
20560;DHT22;10438;51.454;6.718;2023-06-10T04:50:02;19.20;99.90
20560;DHT22;10438;51.454;6.718;2023-06-10T04:52:28;19.20;99.90
20560;DHT22;10438;51.454;6.718;2023-06-10T04:54:54;19.20;99.90
20560;DHT22;10438;51.454;6.718;2023-06-10T04:57:20;19.20;99.90
20560;DHT22;10438;51.454;6.718;2023-06-10T04:59:46;19.30;99.90
20560;DHT22;10438;51.454;6.718;2023-06-10T05:02:12;19.30;99.90
20560;DHT22;10438;51.454;6.718;2023-06-10T05:04:37;19.30;99.90
20560;DHT22;10438;51.454;6.718;2023-06-10T05:07:03;19.30;99.90
20560;DHT22;10438;51.454;6.718;2023-06-10T05:09:29;19.30;99.90
20560;DHT22;10438;51.454;6.718;2023-06-10T05:11:55;19.30;99.90
20560;DHT22;10438;51.454;6.718;2023-06-10T05:14:21;19.30;99.90
20560;DHT22;10438;51.454;6.718;2023-06-10T05:16:50;19.30;99.90
20560;DHT22;10438;51.454;6.718;2023-06-10T05:19:15;19.30;99.70
20560;DHT22;10438;51.454;6.718;2023-06-10T05:21:44;19.40;99.90
20560;DHT22;10438;51.454;6.718;2023-06-10T05:24:10;19.40;99.20
20560;DHT22;10438;51.454;6.718;2023-06-10T05:26:36;19.40;99.00
20560;DHT22;10438;51.454;6.718;2023-06-10T05:29:03;19.40;97.70
20560;DHT22;10438;51.454;6.718;2023-06-10T05:31:28;19.40;98.20
20560;DHT22;10438;51.454;6.718;2023-06-10T05:33:54;19.40;96.80
20560;DHT22;10438;51.454;6.718;2023-06-10T05:36:19;19.50;97.70
20560;DHT22;10438;51.454;6.718;2023-06-10T05:38:46;19.50;96.30
20560;DHT22;10438;51.454;6.718;2023-06-10T05:41:11;19.60;95.10
20560;DHT22;10438;51.454;6.718;2023-06-10T05:43:37;19.60;95.60
20560;DHT22;10438;51.454;6.718;2023-06-10T05:46:02;19.60;95.20
20560;DHT22;10438;51.454;6.718;2023-06-10T05:48:28;19.70;93.70
20560;DHT22;10438;51.454;6.718;2023-06-10T05:50:53;19.80;92.80
20560;DHT22;10438;51.454;6.718;2023-06-10T05:53:19;19.80;92.90
20560;DHT22;10438;51.454;6.718;2023-06-10T05:55:45;19.90;92.30
20560;DHT22;10438;51.454;6.718;2023-06-10T05:58:12;20.00;94.10
20560;DHT22;10438;51.454;6.718;2023-06-10T06:00:38;20.10;87.60
20560;DHT22;10438;51.454;6.718;2023-06-10T06:03:06;20.10;86.90
20560;DHT22;10438;51.454;6.718;2023-06-10T06:05:32;20.20;84.30
20560;DHT22;10438;51.454;6.718;2023-06-10T06:08:01;20.20;87.60
20560;DHT22;10438;51.454;6.718;2023-06-10T06:10:27;20.30;89.90
20560;DHT22;10438;51.454;6.718;2023-06-10T06:12:52;20.40;84.40
20560;DHT22;10438;51.454;6.718;2023-06-10T06:15:18;20.50;79.30
20560;DHT22;10438;51.454;6.718;2023-06-10T06:17:43;20.50;74.50
20560;DHT22;10438;51.454;6.718;2023-06-10T06:20:09;20.60;77.20
20560;DHT22;10438;51.454;6.718;2023-06-10T06:22:34;20.60;74.50
20560;DHT22;10438;51.454;6.718;2023-06-10T06:25:00;20.70;73.80
20560;DHT22;10438;51.454;6.718;2023-06-10T06:27:25;20.80;73.50
20560;DHT22;10438;51.454;6.718;2023-06-10T06:29:51;20.80;68.20
20560;DHT22;10438;51.454;6.718;2023-06-10T06:32:17;20.80;72.00
20560;DHT22;10438;51.454;6.718;2023-06-10T06:34:42;20.90;65.00
20560;DHT22;10438;51.454;6.718;2023-06-10T06:37:08;21.00;63.70
20560;DHT22;10438;51.454;6.718;2023-06-10T06:39:33;21.00;60.70
20560;DHT22;10438;51.454;6.718;2023-06-10T06:41:59;21.10;62.50
20560;DHT22;10438;51.454;6.718;2023-06-10T06:44:24;21.20;58.10
20560;DHT22;10438;51.454;6.718;2023-06-10T06:46:50;21.20;60.50
20560;DHT22;10438;51.454;6.718;2023-06-10T06:49:15;21.30;64.60
20560;DHT22;10438;51.454;6.718;2023-06-10T06:51:41;21.40;60.40
20560;DHT22;10438;51.454;6.718;2023-06-10T06:54:06;21.50;52.80
20560;DHT22;10438;51.454;6.718;2023-06-10T06:56:32;21.60;51.90
20560;DHT22;10438;51.454;6.718;2023-06-10T06:58:57;21.70;55.50
20560;DHT22;10438;51.454;6.718;2023-06-10T07:01:23;21.70;53.90
20560;DHT22;10438;51.454;6.718;2023-06-10T07:03:48;21.80;47.20
20560;DHT22;10438;51.454;6.718;2023-06-10T07:06:14;21.90;50.60
20560;DHT22;10438;51.454;6.718;2023-06-10T07:08:39;22.00;47.80
20560;DHT22;10438;51.454;6.718;2023-06-10T07:11:05;22.10;44.60
20560;DHT22;10438;51.454;6.718;2023-06-10T07:13:30;22.20;44.30
20560;DHT22;10438;51.454;6.718;2023-06-10T07:15:56;22.30;47.40
20560;DHT22;10438;51.454;6.718;2023-06-10T07:18:21;22.40;53.00
20560;DHT22;10438;51.454;6.718;2023-06-10T07:20:47;22.50;41.50
20560;DHT22;10438;51.454;6.718;2023-06-10T07:23:13;22.60;38.80
20560;DHT22;10438;51.454;6.718;2023-06-10T07:25:38;22.60;37.00
20560;DHT22;10438;51.454;6.718;2023-06-10T07:28:04;22.70;34.40
20560;DHT22;10438;51.454;6.718;2023-06-10T07:30:29;22.80;31.40
20560;DHT22;10438;51.454;6.718;2023-06-10T07:32:55;22.90;35.20
20560;DHT22;10438;51.454;6.718;2023-06-10T07:35:21;23.00;33.10
20560;DHT22;10438;51.454;6.718;2023-06-10T07:37:46;23.10;28.70
20560;DHT22;10438;51.454;6.718;2023-06-10T07:40:12;23.20;28.40
20560;DHT22;10438;51.454;6.718;2023-06-10T07:42:37;23.30;29.70
20560;DHT22;10438;51.454;6.718;2023-06-10T07:45:03;23.40;25.40
20560;DHT22;10438;51.454;6.718;2023-06-10T07:47:30;23.50;23.70
20560;DHT22;10438;51.454;6.718;2023-06-10T07:49:55;23.60;19.40
20560;DHT22;10438;51.454;6.718;2023-06-10T07:52:21;23.60;19.30
20560;DHT22;10438;51.454;6.718;2023-06-10T07:54:47;23.80;17.30
20560;DHT22;10438;51.454;6.718;2023-06-10T07:57:12;23.90;20.40
20560;DHT22;10438;51.454;6.718;2023-06-10T07:59:38;24.00;16.80
20560;DHT22;10438;51.454;6.718;2023-06-10T08:02:04;24.10;12.20
20560;DHT22;10438;51.454;6.718;2023-06-10T08:04:30;24.20;17.40
20560;DHT22;10438;51.454;6.718;2023-06-10T08:06:56;24.20;13.40
20560;DHT22;10438;51.454;6.718;2023-06-10T08:09:22;24.40;13.40
20560;DHT22;10438;51.454;6.718;2023-06-10T08:11:48;24.50;12.60
20560;DHT22;10438;51.454;6.718;2023-06-10T08:14:14;24.60;6.70
20560;DHT22;10438;51.454;6.718;2023-06-10T08:16:39;24.70;12.70
20560;DHT22;10438;51.454;6.718;2023-06-10T08:19:05;24.90;10.20
20560;DHT22;10438;51.454;6.718;2023-06-10T08:21:30;25.10;8.40
20560;DHT22;10438;51.454;6.718;2023-06-10T08:23:56;25.10;3.10
20560;DHT22;10438;51.454;6.718;2023-06-10T08:26:22;25.10;1.00
20560;DHT22;10438;51.454;6.718;2023-06-10T08:28:47;25.30;4.90
20560;DHT22;10438;51.454;6.718;2023-06-10T08:31:13;25.50;6.00
20560;DHT22;10438;51.454;6.718;2023-06-10T08:33:41;25.50;8.20
20560;DHT22;10438;51.454;6.718;2023-06-10T08:36:06;25.70;1.60
20560;DHT22;10438;51.454;6.718;2023-06-10T08:38:32;25.80;8.20
20560;DHT22;10438;51.454;6.718;2023-06-10T08:40:59;25.90;1.10
20560;DHT22;10438;51.454;6.718;2023-06-10T08:43:32;26.00;1.00
20560;DHT22;10438;51.454;6.718;2023-06-10T08:46:00;26.10;1.00
20560;DHT22;10438;51.454;6.718;2023-06-10T08:48:29;26.10;1.00
20560;DHT22;10438;51.454;6.718;2023-06-10T08:50:57;26.30;1.00
20560;DHT22;10438;51.454;6.718;2023-06-10T08:53:23;26.50;1.00
20560;DHT22;10438;51.454;6.718;2023-06-10T08:55:51;26.50;1.00
20560;DHT22;10438;51.454;6.718;2023-06-10T08:58:20;26.60;1.00
20560;DHT22;10438;51.454;6.718;2023-06-10T09:00:46;26.80;1.00
20560;DHT22;10438;51.454;6.718;2023-06-10T09:03:12;26.80;1.00
20560;DHT22;10438;51.454;6.718;2023-06-10T09:05:38;26.90;1.00
20560;DHT22;10438;51.454;6.718;2023-06-10T09:08:06;27.10;1.00
20560;DHT22;10438;51.454;6.718;2023-06-10T09:10:32;27.30;1.00
20560;DHT22;10438;51.454;6.718;2023-06-10T09:12:58;27.30;1.00
20560;DHT22;10438;51.454;6.718;2023-06-10T09:15:23;27.50;1.00
20560;DHT22;10438;51.454;6.718;2023-06-10T09:17:49;27.70;1.00
20560;DHT22;10438;51.454;6.718;2023-06-10T09:20:15;27.50;1.00
20560;DHT22;10438;51.454;6.718;2023-06-10T09:22:42;27.60;1.00
20560;DHT22;10438;51.454;6.718;2023-06-10T09:25:10;27.70;1.00
20560;DHT22;10438;51.454;6.718;2023-06-10T09:27:50;27.70;1.00
20560;DHT22;10438;51.454;6.718;2023-06-10T09:30:27;27.90;1.00
20560;DHT22;10438;51.454;6.718;2023-06-10T09:32:54;27.80;1.00
20560;DHT22;10438;51.454;6.718;2023-06-10T09:35:24;28.00;1.00
20560;DHT22;10438;51.454;6.718;2023-06-10T09:37:52;28.20;1.00
20560;DHT22;10438;51.454;6.718;2023-06-10T09:40:17;28.30;1.00
20560;DHT22;10438;51.454;6.718;2023-06-10T09:42:43;28.30;1.00
20560;DHT22;10438;51.454;6.718;2023-06-10T09:45:09;28.20;1.00
20560;DHT22;10438;51.454;6.718;2023-06-10T09:47:34;28.20;1.00
20560;DHT22;10438;51.454;6.718;2023-06-10T09:50:00;28.20;1.00
20560;DHT22;10438;51.454;6.718;2023-06-10T09:52:27;28.10;1.00
20560;DHT22;10438;51.454;6.718;2023-06-10T09:55:02;27.90;1.00
20560;DHT22;10438;51.454;6.718;2023-06-10T09:57:31;28.00;1.00
20560;DHT22;10438;51.454;6.718;2023-06-10T10:00:08;28.30;1.00
20560;DHT22;10438;51.454;6.718;2023-06-10T10:02:48;28.40;1.00
20560;DHT22;10438;51.454;6.718;2023-06-10T10:05:19;28.50;1.00
20560;DHT22;10438;51.454;6.718;2023-06-10T10:07:45;28.80;1.00
20560;DHT22;10438;51.454;6.718;2023-06-10T10:10:12;28.90;1.00
20560;DHT22;10438;51.454;6.718;2023-06-10T10:12:39;29.00;1.00
20560;DHT22;10438;51.454;6.718;2023-06-10T10:15:09;29.10;1.00
20560;DHT22;10438;51.454;6.718;2023-06-10T10:20:26;29.30;1.00
20560;DHT22;10438;51.454;6.718;2023-06-10T10:22:52;29.40;1.00
20560;DHT22;10438;51.454;6.718;2023-06-10T10:25:28;29.70;1.00
20560;DHT22;10438;51.454;6.718;2023-06-10T10:27:59;30.00;1.00
20560;DHT22;10438;51.454;6.718;2023-06-10T10:30:28;30.10;1.00
20560;DHT22;10438;51.454;6.718;2023-06-10T10:33:04;29.90;1.00
20560;DHT22;10438;51.454;6.718;2023-06-10T10:35:30;29.70;1.00
20560;DHT22;10438;51.454;6.718;2023-06-10T10:37:58;29.90;1.00
20560;DHT22;10438;51.454;6.718;2023-06-10T10:40:25;29.80;1.00
20560;DHT22;10438;51.454;6.718;2023-06-10T10:42:55;29.60;1.00
20560;DHT22;10438;51.454;6.718;2023-06-10T10:45:21;29.70;1.00
20560;DHT22;10438;51.454;6.718;2023-06-10T10:47:52;29.70;1.00
20560;DHT22;10438;51.454;6.718;2023-06-10T10:50:19;29.80;1.00
20560;DHT22;10438;51.454;6.718;2023-06-10T10:52:57;30.10;1.00
20560;DHT22;10438;51.454;6.718;2023-06-10T10:55:24;30.00;1.00
20560;DHT22;10438;51.454;6.718;2023-06-10T11:00:32;30.50;1.00
20560;DHT22;10438;51.454;6.718;2023-06-10T11:03:03;30.90;1.00
20560;DHT22;10438;51.454;6.718;2023-06-10T11:05:43;31.00;1.00
20560;DHT22;10438;51.454;6.718;2023-06-10T11:08:13;31.00;1.00
20560;DHT22;10438;51.454;6.718;2023-06-10T11:10:40;31.00;1.00
20560;DHT22;10438;51.454;6.718;2023-06-10T11:13:26;30.90;1.00
20560;DHT22;10438;51.454;6.718;2023-06-10T11:15:53;30.80;1.00
20560;DHT22;10438;51.454;6.718;2023-06-10T11:18:26;30.70;1.00
20560;DHT22;10438;51.454;6.718;2023-06-10T11:23:32;30.80;1.00
20560;DHT22;10438;51.454;6.718;2023-06-10T11:31:46;31.30;1.00
20560;DHT22;10438;51.454;6.718;2023-06-10T11:34:11;31.40;1.00
20560;DHT22;10438;51.454;6.718;2023-06-10T11:36:40;31.70;1.00
20560;DHT22;10438;51.454;6.718;2023-06-10T11:39:08;31.50;1.00
20560;DHT22;10438;51.454;6.718;2023-06-10T11:41:35;31.60;1.00
20560;DHT22;10438;51.454;6.718;2023-06-10T11:44:07;31.60;1.00
20560;DHT22;10438;51.454;6.718;2023-06-10T11:46:33;31.70;1.00
20560;DHT22;10438;51.454;6.718;2023-06-10T11:48:59;31.50;1.00
20560;DHT22;10438;51.454;6.718;2023-06-10T11:51:26;31.60;1.00
20560;DHT22;10438;51.454;6.718;2023-06-10T11:53:53;31.50;1.00
20560;DHT22;10438;51.454;6.718;2023-06-10T11:56:23;31.30;1.00
20560;DHT22;10438;51.454;6.718;2023-06-10T11:58:54;31.40;1.00
20560;DHT22;10438;51.454;6.718;2023-06-10T12:01:24;31.40;1.00
20560;DHT22;10438;51.454;6.718;2023-06-10T12:04:01;31.00;1.00
20560;DHT22;10438;51.454;6.718;2023-06-10T12:06:27;31.20;1.00
20560;DHT22;10438;51.454;6.718;2023-06-10T12:08:53;31.30;1.00
20560;DHT22;10438;51.454;6.718;2023-06-10T12:11:19;31.10;1.00
20560;DHT22;10438;51.454;6.718;2023-06-10T12:13:49;31.20;1.00
20560;DHT22;10438;51.454;6.718;2023-06-10T12:16:16;31.30;1.00
20560;DHT22;10438;51.454;6.718;2023-06-10T12:18:43;31.10;1.00
20560;DHT22;10438;51.454;6.718;2023-06-10T12:21:23;31.40;1.00
20560;DHT22;10438;51.454;6.718;2023-06-10T12:24:10;31.10;1.00
20560;DHT22;10438;51.454;6.718;2023-06-10T12:26:37;31.30;1.00
20560;DHT22;10438;51.454;6.718;2023-06-10T12:32:02;32.00;1.00
20560;DHT22;10438;51.454;6.718;2023-06-10T12:34:32;32.00;1.00
20560;DHT22;10438;51.454;6.718;2023-06-10T12:36:59;32.20;1.00
20560;DHT22;10438;51.454;6.718;2023-06-10T12:39:25;32.10;1.00
20560;DHT22;10438;51.454;6.718;2023-06-10T12:41:54;32.20;1.00
20560;DHT22;10438;51.454;6.718;2023-06-10T12:44:31;31.90;1.00
20560;DHT22;10438;51.454;6.718;2023-06-10T12:46:57;32.20;1.00
20560;DHT22;10438;51.454;6.718;2023-06-10T12:49:23;32.50;1.00
20560;DHT22;10438;51.454;6.718;2023-06-10T12:51:48;32.20;1.00
20560;DHT22;10438;51.454;6.718;2023-06-10T12:54:14;32.30;1.00
20560;DHT22;10438;51.454;6.718;2023-06-10T12:56:40;32.30;1.00
20560;DHT22;10438;51.454;6.718;2023-06-10T12:59:05;32.50;1.00
20560;DHT22;10438;51.454;6.718;2023-06-10T13:01:31;32.50;1.00
20560;DHT22;10438;51.454;6.718;2023-06-10T13:03:58;32.50;1.00
20560;DHT22;10438;51.454;6.718;2023-06-10T13:06:23;32.50;1.00
20560;DHT22;10438;51.454;6.718;2023-06-10T13:08:49;32.60;1.00
20560;DHT22;10438;51.454;6.718;2023-06-10T13:11:16;33.10;1.00
20560;DHT22;10438;51.454;6.718;2023-06-10T13:13:41;33.20;1.00
20560;DHT22;10438;51.454;6.718;2023-06-10T13:16:08;33.40;1.00
20560;DHT22;10438;51.454;6.718;2023-06-10T13:18:33;33.20;1.00
20560;DHT22;10438;51.454;6.718;2023-06-10T13:21:03;33.10;1.00
20560;DHT22;10438;51.454;6.718;2023-06-10T13:23:29;33.20;1.00
20560;DHT22;10438;51.454;6.718;2023-06-10T13:25:56;32.40;1.00
20560;DHT22;10438;51.454;6.718;2023-06-10T13:28:22;32.80;1.00
20560;DHT22;10438;51.454;6.718;2023-06-10T13:30:48;32.60;1.00
20560;DHT22;10438;51.454;6.718;2023-06-10T13:33:13;32.60;1.00
20560;DHT22;10438;51.454;6.718;2023-06-10T13:35:39;32.90;1.00
20560;DHT22;10438;51.454;6.718;2023-06-10T13:38:05;33.20;1.00
20560;DHT22;10438;51.454;6.718;2023-06-10T13:40:30;33.60;1.00
20560;DHT22;10438;51.454;6.718;2023-06-10T13:42:56;33.40;1.00
20560;DHT22;10438;51.454;6.718;2023-06-10T13:45:21;33.50;1.00
20560;DHT22;10438;51.454;6.718;2023-06-10T13:47:47;33.40;1.00
20560;DHT22;10438;51.454;6.718;2023-06-10T13:50:13;33.40;1.00
20560;DHT22;10438;51.454;6.718;2023-06-10T13:52:38;33.70;1.00
20560;DHT22;10438;51.454;6.718;2023-06-10T13:55:04;33.50;1.00
20560;DHT22;10438;51.454;6.718;2023-06-10T13:57:30;33.50;1.00
20560;DHT22;10438;51.454;6.718;2023-06-10T13:59:55;33.70;1.00
20560;DHT22;10438;51.454;6.718;2023-06-10T14:02:21;33.30;1.00
20560;DHT22;10438;51.454;6.718;2023-06-10T14:04:47;33.60;1.00
20560;DHT22;10438;51.454;6.718;2023-06-10T14:07:13;33.60;1.00
20560;DHT22;10438;51.454;6.718;2023-06-10T14:09:38;33.10;1.00
20560;DHT22;10438;51.454;6.718;2023-06-10T14:12:04;32.60;1.00
20560;DHT22;10438;51.454;6.718;2023-06-10T14:14:30;32.10;1.00
20560;DHT22;10438;51.454;6.718;2023-06-10T14:16:58;32.50;1.00
20560;DHT22;10438;51.454;6.718;2023-06-10T14:19:24;32.70;1.00
20560;DHT22;10438;51.454;6.718;2023-06-10T14:21:49;32.90;1.00
20560;DHT22;10438;51.454;6.718;2023-06-10T14:24:15;33.40;1.00
20560;DHT22;10438;51.454;6.718;2023-06-10T14:26:40;33.70;1.00
20560;DHT22;10438;51.454;6.718;2023-06-10T14:29:06;33.10;1.00
20560;DHT22;10438;51.454;6.718;2023-06-10T14:31:32;32.70;1.00
20560;DHT22;10438;51.454;6.718;2023-06-10T14:33:58;32.70;1.00
20560;DHT22;10438;51.454;6.718;2023-06-10T14:36:23;32.40;1.00
20560;DHT22;10438;51.454;6.718;2023-06-10T14:38:49;32.50;1.00
20560;DHT22;10438;51.454;6.718;2023-06-10T14:41:15;32.50;1.00
20560;DHT22;10438;51.454;6.718;2023-06-10T14:43:40;33.40;1.00
20560;DHT22;10438;51.454;6.718;2023-06-10T14:46:06;33.80;1.00
20560;DHT22;10438;51.454;6.718;2023-06-10T14:48:31;33.00;1.00
20560;DHT22;10438;51.454;6.718;2023-06-10T14:50:57;33.60;1.00
20560;DHT22;10438;51.454;6.718;2023-06-10T14:53:23;33.50;1.00
20560;DHT22;10438;51.454;6.718;2023-06-10T14:55:48;33.40;1.00
20560;DHT22;10438;51.454;6.718;2023-06-10T14:58:14;33.50;1.00
20560;DHT22;10438;51.454;6.718;2023-06-10T15:00:39;33.50;1.00
20560;DHT22;10438;51.454;6.718;2023-06-10T15:03:05;33.80;1.00
20560;DHT22;10438;51.454;6.718;2023-06-10T15:05:31;33.80;1.00
20560;DHT22;10438;51.454;6.718;2023-06-10T15:07:58;33.70;1.00
20560;DHT22;10438;51.454;6.718;2023-06-10T15:10:24;33.90;1.00
20560;DHT22;10438;51.454;6.718;2023-06-10T15:12:49;33.60;1.00
20560;DHT22;10438;51.454;6.718;2023-06-10T15:15:21;33.50;1.00
20560;DHT22;10438;51.454;6.718;2023-06-10T15:17:47;33.80;1.00
20560;DHT22;10438;51.454;6.718;2023-06-10T15:20:13;33.60;1.00
20560;DHT22;10438;51.454;6.718;2023-06-10T15:22:38;33.80;1.00
20560;DHT22;10438;51.454;6.718;2023-06-10T15:25:04;34.00;1.00
20560;DHT22;10438;51.454;6.718;2023-06-10T15:27:30;34.00;1.00
20560;DHT22;10438;51.454;6.718;2023-06-10T15:29:55;34.00;1.00
20560;DHT22;10438;51.454;6.718;2023-06-10T15:32:21;33.90;1.00
20560;DHT22;10438;51.454;6.718;2023-06-10T15:34:46;33.90;1.00
20560;DHT22;10438;51.454;6.718;2023-06-10T15:37:14;33.60;1.00
20560;DHT22;10438;51.454;6.718;2023-06-10T15:39:39;33.40;1.00
20560;DHT22;10438;51.454;6.718;2023-06-10T15:42:06;33.40;1.00
20560;DHT22;10438;51.454;6.718;2023-06-10T15:44:31;32.60;1.00
20560;DHT22;10438;51.454;6.718;2023-06-10T15:46:57;32.80;1.00
20560;DHT22;10438;51.454;6.718;2023-06-10T15:49:22;32.90;1.00
20560;DHT22;10438;51.454;6.718;2023-06-10T15:51:49;33.00;1.00
20560;DHT22;10438;51.454;6.718;2023-06-10T15:54:14;32.80;1.00
20560;DHT22;10438;51.454;6.718;2023-06-10T15:56:40;32.80;1.00